Time;durP1;ratioP1;P1;durP2;ratioP2;P2;SDS_P1;SDS_P2;PMS_P1;PMS_P2;Temp;Humidity;BMP_temperature;BMP_pressure;BME280_temperature;BME280_humidity;BME280_pressure;Samples;Min_cycle;Max_cycle;Signal;HPM_P1;HPM_P2
2023/09/07 00:00:36;;;;;;;4.80;3.60;;;21.60;99.70;;;;;;5015734;28;20088;-82
2023/09/07 00:03:02;;;;;;;5.43;3.80;;;21.60;99.70;;;;;;5032439;28;20021;-82
2023/09/07 00:05:27;;;;;;;4.30;3.80;;;21.50;99.80;;;;;;5002813;28;20033;-83
2023/09/07 00:07:53;;;;;;;4.53;3.58;;;21.50;99.80;;;;;;5012648;28;20034;-82
2023/09/07 00:10:19;;;;;;;4.07;3.63;;;21.50;99.90;;;;;;5012437;28;20025;-83
2023/09/07 00:12:45;;;;;;;3.78;3.45;;;21.50;99.90;;;;;;5014548;28;20485;-82
2023/09/07 00:15:11;;;;;;;6.10;4.00;;;21.50;99.90;;;;;;4996009;28;20022;-83
2023/09/07 00:17:37;;;;;;;4.90;3.33;;;21.50;99.90;;;;;;5012377;28;20030;-82
2023/09/07 00:20:14;;;;;;;4.28;3.88;;;21.50;99.90;;;;;;5016731;28;20037;-82
2023/09/07 00:22:40;;;;;;;4.43;3.65;;;21.40;99.90;;;;;;5012345;28;20477;-82
2023/09/07 00:25:06;;;;;;;3.97;3.47;;;21.40;99.90;;;;;;4995922;28;20022;-82
2023/09/07 00:27:33;;;;;;;4.28;3.88;;;21.40;99.90;;;;;;5012298;28;20407;-83
2023/09/07 00:29:59;;;;;;;4.88;3.78;;;21.30;99.90;;;;;;5012100;28;20029;-83
2023/09/07 00:32:25;;;;;;;4.38;3.58;;;21.30;99.90;;;;;;5006364;28;20026;-82
2023/09/07 00:34:50;;;;;;;4.55;3.97;;;21.30;99.90;;;;;;5009100;28;20091;-82
2023/09/07 00:37:16;;;;;;;6.63;4.47;;;21.30;99.90;;;;;;5051544;28;20465;-83
2023/09/07 00:39:41;;;;;;;5.15;4.20;;;21.30;99.90;;;;;;5018545;28;20389;-82
2023/09/07 00:42:07;;;;;;;7.03;4.80;;;21.30;99.90;;;;;;5015150;28;20103;-82
2023/09/07 00:44:33;;;;;;;5.85;4.30;;;21.30;99.90;;;;;;4998942;28;20065;-83
2023/09/07 00:46:58;;;;;;;6.65;4.18;;;21.30;99.90;;;;;;5032250;28;20056;-82
2023/09/07 00:49:25;;;;;;;4.70;4.20;;;21.30;99.90;;;;;;5015373;28;20025;-83
2023/09/07 00:51:52;;;;;;;6.80;4.28;;;21.30;99.90;;;;;;5031846;28;20028;-83
2023/09/07 00:54:18;;;;;;;4.97;4.45;;;21.30;99.90;;;;;;5031514;28;20044;-83
2023/09/07 00:56:44;;;;;;;4.30;3.90;;;21.30;99.90;;;;;;5031912;28;20369;-83
2023/09/07 00:59:11;;;;;;;6.20;4.30;;;21.30;99.90;;;;;;5046747;28;20048;-83
2023/09/07 01:01:37;;;;;;;5.35;4.25;;;21.30;99.80;;;;;;5024811;28;20030;-82
2023/09/07 01:04:03;;;;;;;4.35;3.70;;;21.30;99.90;;;;;;5047187;28;20032;-82
2023/09/07 01:06:42;;;;;;;4.70;4.20;;;21.30;99.90;;;;;;5044697;28;20052;-82
2023/09/07 01:09:17;;;;;;;6.75;4.50;;;21.30;99.90;;;;;;5049861;28;20372;-83
2023/09/07 01:11:43;;;;;;;5.90;4.60;;;21.30;99.90;;;;;;5036701;28;20028;-82
2023/09/07 01:14:10;;;;;;;5.68;4.45;;;21.30;99.90;;;;;;5035543;28;20457;-82
2023/09/07 01:16:38;;;;;;;5.63;5.03;;;21.30;99.90;;;;;;5035194;28;20025;-82
2023/09/07 01:19:06;;;;;;;5.80;4.85;;;21.30;99.90;;;;;;5031762;28;20033;-82
2023/09/07 01:21:36;;;;;;;4.95;4.47;;;21.20;99.90;;;;;;5035330;28;20044;-82
2023/09/07 01:24:10;;;;;;;5.72;4.65;;;21.30;99.90;;;;;;5019131;28;20068;-82
2023/09/07 01:26:39;;;;;;;5.53;4.53;;;21.30;99.90;;;;;;5044189;28;20053;-82
2023/09/07 01:29:06;;;;;;;6.60;4.93;;;21.20;99.90;;;;;;5032253;28;20499;-82
2023/09/07 01:31:38;;;;;;;5.97;4.30;;;21.30;99.90;;;;;;5023595;28;20009;-83
2023/09/07 01:34:04;;;;;;;6.32;5.18;;;21.30;99.90;;;;;;5063732;28;20056;-82
2023/09/07 01:36:30;;;;;;;5.03;4.45;;;21.30;99.90;;;;;;5079954;28;20048;-83
2023/09/07 01:38:56;;;;;;;4.75;4.30;;;21.30;99.90;;;;;;5062009;28;20037;-84
2023/09/07 01:41:21;;;;;;;5.07;4.35;;;21.30;99.90;;;;;;5045131;28;20017;-81
2023/09/07 01:43:48;;;;;;;7.25;5.15;;;21.20;99.90;;;;;;5050512;28;20025;-82
2023/09/07 01:46:13;;;;;;;5.25;4.75;;;21.20;99.90;;;;;;5058948;28;20036;-83
2023/09/07 01:48:39;;;;;;;5.65;5.03;;;21.20;99.90;;;;;;5008555;28;20063;-82
2023/09/07 01:51:05;;;;;;;5.70;4.90;;;21.20;99.90;;;;;;5021531;28;20361;-82
2023/09/07 01:53:30;;;;;;;5.70;5.07;;;21.20;99.90;;;;;;5037631;28;20051;-82
2023/09/07 01:55:56;;;;;;;7.25;4.78;;;21.10;99.90;;;;;;5045610;28;20098;-82
2023/09/07 01:58:23;;;;;;;6.43;4.82;;;21.10;99.90;;;;;;5040677;28;20028;-83
2023/09/07 02:00:49;;;;;;;5.85;4.60;;;21.10;99.90;;;;;;5025034;28;20025;-82
2023/09/07 02:03:15;;;;;;;5.28;4.78;;;21.10;99.90;;;;;;5041071;28;20054;-82
2023/09/07 02:05:41;;;;;;;7.72;4.45;;;21.10;99.90;;;;;;5074892;28;20120;-82
2023/09/07 02:08:06;;;;;;;5.45;4.93;;;21.10;99.90;;;;;;5057513;28;20090;-82
2023/09/07 02:10:33;;;;;;;5.10;4.60;;;21.10;99.90;;;;;;5040471;28;20031;-82
2023/09/07 02:12:59;;;;;;;5.18;4.63;;;21.10;99.90;;;;;;5057341;28;20032;-83
2023/09/07 02:15:25;;;;;;;5.82;4.50;;;21.10;99.90;;;;;;5040455;28;20032;-83
2023/09/07 02:17:53;;;;;;;6.60;5.00;;;21.00;99.90;;;;;;5057106;28;20461;-82
2023/09/07 02:20:20;;;;;;;6.43;4.70;;;21.00;99.90;;;;;;5056555;28;20025;-82
2023/09/07 02:22:45;;;;;;;5.30;4.80;;;21.00;99.90;;;;;;5036169;28;20372;-83
2023/09/07 02:25:11;;;;;;;5.43;4.93;;;21.00;99.90;;;;;;5019597;28;20021;-83
2023/09/07 02:27:37;;;;;;;5.72;4.53;;;20.90;99.90;;;;;;5031199;28;20035;-82
2023/09/07 02:30:04;;;;;;;6.72;4.47;;;20.90;99.90;;;;;;5045926;28;20146;-83
2023/09/07 02:32:30;;;;;;;6.13;4.75;;;20.90;99.90;;;;;;5025858;28;20021;-83
2023/09/07 02:34:55;;;;;;;6.30;4.70;;;20.90;99.90;;;;;;5053937;28;20460;-82
2023/09/07 02:37:24;;;;;;;5.10;4.55;;;20.90;99.90;;;;;;5030816;28;20033;-83
2023/09/07 02:39:50;;;;;;;5.30;4.20;;;20.80;99.90;;;;;;5036963;28;20037;-82
2023/09/07 02:42:16;;;;;;;5.88;4.82;;;20.80;99.90;;;;;;5022544;28;20035;-82
2023/09/07 02:44:41;;;;;;;6.13;4.65;;;20.70;99.90;;;;;;5039808;28;20510;-83
2023/09/07 02:47:07;;;;;;;5.50;4.78;;;20.70;99.90;;;;;;5025545;28;20025;-82
2023/09/07 02:49:33;;;;;;;6.18;4.78;;;20.70;99.90;;;;;;5036312;28;20032;-83
2023/09/07 02:51:58;;;;;;;5.47;4.78;;;20.70;99.90;;;;;;5004116;28;20025;-82
2023/09/07 02:54:24;;;;;;;4.95;4.45;;;20.70;99.90;;;;;;5026042;28;20097;-82
2023/09/07 02:56:50;;;;;;;5.22;4.72;;;20.70;99.90;;;;;;5048418;28;20610;-82
2023/09/07 02:59:15;;;;;;;5.32;4.80;;;20.70;99.90;;;;;;5020086;28;20029;-82
2023/09/07 03:01:41;;;;;;;5.70;4.88;;;20.70;99.90;;;;;;5003659;28;20079;-82
2023/09/07 03:04:07;;;;;;;6.80;4.90;;;20.70;99.90;;;;;;5003693;28;20079;-82
2023/09/07 03:06:33;;;;;;;5.57;4.82;;;20.70;99.90;;;;;;5036266;28;20033;-82
2023/09/07 03:08:59;;;;;;;5.05;4.55;;;20.70;99.90;;;;;;5036456;28;20017;-82
2023/09/07 03:11:25;;;;;;;5.93;4.38;;;20.60;99.90;;;;;;5019757;28;20478;-82
2023/09/07 03:13:51;;;;;;;5.50;4.93;;;20.60;99.90;;;;;;5037321;28;20031;-82
2023/09/07 03:16:16;;;;;;;4.95;4.45;;;20.60;99.90;;;;;;5039841;28;20012;-82
2023/09/07 03:18:42;;;;;;;5.40;4.75;;;20.60;99.90;;;;;;5023006;28;20028;-82
2023/09/07 03:21:08;;;;;;;5.22;4.70;;;20.60;99.90;;;;;;5039821;28;20024;-82
2023/09/07 03:23:34;;;;;;;5.70;5.03;;;20.60;99.90;;;;;;5056133;28;20021;-83
2023/09/07 03:26:00;;;;;;;5.57;5.00;;;20.60;99.90;;;;;;5032674;28;20051;-82
2023/09/07 03:28:26;;;;;;;5.07;4.57;;;20.50;99.90;;;;;;5066818;28;20017;-82
2023/09/07 03:30:55;;;;;;;5.95;4.72;;;20.50;99.90;;;;;;5077719;28;20028;-83
2023/09/07 03:33:21;;;;;;;6.88;4.88;;;20.50;99.90;;;;;;5046878;28;20017;-82
2023/09/07 03:35:47;;;;;;;5.72;4.90;;;20.40;99.90;;;;;;5059139;28;20401;-82
2023/09/07 03:38:13;;;;;;;6.30;5.60;;;20.40;99.90;;;;;;5028247;28;20053;-81
2023/09/07 03:40:39;;;;;;;5.40;4.90;;;20.40;99.90;;;;;;5087882;28;20516;-81
2023/09/07 03:43:05;;;;;;;7.00;5.07;;;20.40;99.90;;;;;;5056864;28;20143;-82
2023/09/07 03:45:30;;;;;;;8.00;5.32;;;20.40;99.90;;;;;;5074138;28;20452;-82
2023/09/07 03:47:56;;;;;;;5.63;4.82;;;20.40;99.90;;;;;;5039076;28;20028;-82
2023/09/07 03:50:22;;;;;;;5.47;4.97;;;20.40;99.90;;;;;;5055728;28;20363;-82
2023/09/07 03:52:48;;;;;;;5.65;5.05;;;20.40;99.90;;;;;;5038877;28;20458;-82
2023/09/07 03:55:13;;;;;;;7.00;5.82;;;20.40;99.90;;;;;;5039015;28;20405;-82
2023/09/07 03:57:39;;;;;;;6.25;5.32;;;20.30;99.90;;;;;;5033782;28;20029;-82
2023/09/07 04:00:07;;;;;;;6.35;5.32;;;20.30;99.90;;;;;;5062797;28;20103;-82
2023/09/07 04:02:34;;;;;;;5.68;5.07;;;20.30;99.90;;;;;;5055577;28;20547;-82
2023/09/07 04:05:01;;;;;;;6.20;4.55;;;20.30;99.90;;;;;;5055564;28;20024;-82
2023/09/07 04:07:27;;;;;;;6.22;5.00;;;20.30;99.90;;;;;;5055993;28;20330;-82
2023/09/07 04:09:53;;;;;;;6.75;5.57;;;20.30;99.90;;;;;;5055397;28;20082;-82
2023/09/07 04:12:18;;;;;;;5.78;5.18;;;20.30;99.90;;;;;;5059977;28;20457;-82
2023/09/07 04:14:44;;;;;;;6.68;5.47;;;20.30;99.90;;;;;;5018361;28;20087;-82
2023/09/07 04:17:10;;;;;;;6.07;5.40;;;20.30;99.90;;;;;;5035315;28;20021;-82
2023/09/07 04:19:36;;;;;;;5.95;5.35;;;20.30;99.90;;;;;;5049959;28;20028;-82
2023/09/07 04:22:01;;;;;;;6.07;5.45;;;20.30;99.90;;;;;;5055777;28;20025;-82
2023/09/07 04:24:27;;;;;;;5.75;5.13;;;20.20;99.90;;;;;;5055180;28;20112;-82
2023/09/07 04:26:53;;;;;;;6.38;5.45;;;20.20;99.90;;;;;;5051918;28;20440;-82
2023/09/07 04:29:19;;;;;;;8.18;5.38;;;20.20;99.90;;;;;;5018825;28;20119;-82
2023/09/07 04:31:45;;;;;;;6.43;5.57;;;20.20;99.90;;;;;;5034997;28;20057;-82
2023/09/07 04:34:10;;;;;;;6.00;5.43;;;20.20;99.90;;;;;;5018980;28;20021;-84
2023/09/07 04:36:36;;;;;;;8.80;5.10;;;20.10;99.90;;;;;;5008025;28;20537;-82
2023/09/07 04:39:03;;;;;;;6.80;5.60;;;20.10;99.90;;;;;;5030835;28;20090;-81
2023/09/07 04:41:29;;;;;;;7.13;5.75;;;20.10;99.90;;;;;;5026120;28;20025;-82
2023/09/07 04:43:55;;;;;;;7.47;5.53;;;20.10;99.90;;;;;;5054298;28;20031;-82
2023/09/07 04:46:22;;;;;;;7.63;6.13;;;20.10;99.90;;;;;;5026858;28;20025;-82
2023/09/07 04:48:50;;;;;;;9.48;5.72;;;20.00;99.90;;;;;;5039171;28;20064;-81
2023/09/07 04:51:16;;;;;;;6.28;5.68;;;20.00;99.90;;;;;;5070935;28;20436;-82
2023/09/07 04:53:42;;;;;;;6.20;5.60;;;20.00;99.90;;;;;;5034388;28;20395;-82
2023/09/07 04:56:08;;;;;;;7.10;6.03;;;20.00;99.90;;;;;;5055336;28;20027;-82
2023/09/07 04:58:35;;;;;;;6.50;5.78;;;20.00;99.90;;;;;;5058570;28;20020;-82
2023/09/07 05:01:09;;;;;;;6.75;6.05;;;19.90;99.90;;;;;;5055647;28;20012;-82
2023/09/07 05:03:35;;;;;;;6.28;5.50;;;19.90;99.90;;;;;;5062852;28;20095;-82
2023/09/07 05:06:02;;;;;;;7.00;5.47;;;19.90;99.90;;;;;;5058831;28;20024;-82
2023/09/07 05:08:29;;;;;;;8.18;6.43;;;19.90;99.90;;;;;;5023762;28;20469;-81
2023/09/07 05:11:04;;;;;;;7.05;6.15;;;19.90;99.90;;;;;;5061161;28;20013;-82
2023/09/07 05:13:30;;;;;;;7.03;5.75;;;19.90;99.90;;;;;;5042547;28;20024;-82
2023/09/07 05:15:58;;;;;;;7.45;5.60;;;19.80;99.90;;;;;;5042411;28;20021;-82
2023/09/07 05:18:23;;;;;;;6.70;5.85;;;19.80;99.90;;;;;;5058874;28;20036;-81
2023/09/07 05:20:51;;;;;;;6.95;6.25;;;19.80;99.90;;;;;;5026437;28;20119;-81
2023/09/07 05:23:19;;;;;;;7.32;6.18;;;19.80;99.90;;;;;;5050270;28;20008;-82
2023/09/07 05:26:02;;;;;;;7.18;6.15;;;19.80;99.90;;;;;;5063197;28;20009;-82
2023/09/07 05:28:28;;;;;;;7.65;6.32;;;19.80;99.90;;;;;;5046818;28;20077;-80
2023/09/07 05:30:53;;;;;;;7.80;7.00;;;19.80;99.90;;;;;;5045507;28;20016;-80
2023/09/07 05:33:19;;;;;;;6.85;6.20;;;19.80;99.90;;;;;;5058027;28;20024;-81
2023/09/07 05:35:48;;;;;;;8.40;6.60;;;19.70;99.90;;;;;;5064605;28;20043;-81
2023/09/07 05:38:14;;;;;;;7.38;5.80;;;19.70;99.90;;;;;;5040522;28;20079;-81
2023/09/07 05:40:41;;;;;;;8.10;6.18;;;19.70;99.90;;;;;;5058422;28;20396;-81
2023/09/07 05:43:07;;;;;;;6.25;5.65;;;19.80;99.90;;;;;;5075568;28;20019;-81
2023/09/07 05:45:37;;;;;;;6.43;5.60;;;19.80;99.90;;;;;;5057744;28;20121;-81
2023/09/07 05:48:04;;;;;;;9.18;6.40;;;19.70;99.90;;;;;;5051205;28;20078;-81
2023/09/07 05:50:29;;;;;;;6.65;5.80;;;19.70;99.90;;;;;;5037759;28;20052;-81
2023/09/07 05:52:55;;;;;;;9.20;6.15;;;19.70;99.90;;;;;;5037774;28;20029;-81
2023/09/07 05:55:21;;;;;;;8.23;6.20;;;19.70;99.90;;;;;;5004918;28;20025;-82
2023/09/07 05:57:46;;;;;;;6.85;6.05;;;19.70;99.90;;;;;;5024534;28;20029;-81
2023/09/07 06:00:13;;;;;;;9.85;6.10;;;19.70;99.90;;;;;;5037531;28;20060;-81
2023/09/07 06:02:39;;;;;;;8.82;6.05;;;19.80;99.90;;;;;;5037848;28;20039;-81
2023/09/07 06:05:05;;;;;;;9.85;6.32;;;19.80;99.90;;;;;;5037305;28;20399;-81
2023/09/07 06:07:31;;;;;;;7.97;5.93;;;19.80;99.90;;;;;;5045071;28;20069;-81
2023/09/07 06:09:58;;;;;;;7.97;5.95;;;19.80;99.90;;;;;;5048247;28;20021;-81
2023/09/07 06:12:24;;;;;;;7.30;5.90;;;19.80;99.90;;;;;;5057861;28;20020;-81
2023/09/07 06:14:50;;;;;;;8.15;5.72;;;19.90;99.90;;;;;;5057269;28;20021;-81
2023/09/07 06:17:16;;;;;;;8.38;5.88;;;19.90;99.90;;;;;;5057813;28;20467;-82
2023/09/07 06:19:42;;;;;;;9.13;6.50;;;19.90;99.90;;;;;;5057386;28;20585;-81
2023/09/07 06:22:08;;;;;;;7.97;6.80;;;20.00;99.90;;;;;;5057294;28;20043;-82
2023/09/07 06:24:33;;;;;;;8.15;6.38;;;20.00;99.90;;;;;;5045887;28;20032;-82
2023/09/07 06:26:59;;;;;;;7.13;6.22;;;19.90;99.90;;;;;;5020804;28;20021;-81
2023/09/07 06:29:25;;;;;;;7.22;6.35;;;20.00;99.90;;;;;;5020360;28;20025;-81
2023/09/07 06:31:52;;;;;;;6.90;6.03;;;20.00;99.90;;;;;;5044283;28;20380;-81
2023/09/07 06:34:17;;;;;;;9.00;6.15;;;20.00;99.90;;;;;;5004641;28;20115;-82
2023/09/07 06:36:43;;;;;;;7.93;6.07;;;20.00;99.90;;;;;;5072224;28;20084;-81
2023/09/07 06:39:09;;;;;;;6.20;5.38;;;20.00;99.90;;;;;;5042868;28;20033;-81
2023/09/07 06:41:34;;;;;;;8.70;5.97;;;20.10;99.90;;;;;;5036751;28;20074;-81
2023/09/07 06:44:00;;;;;;;8.68;7.05;;;20.10;99.90;;;;;;5054691;28;20021;-81
2023/09/07 06:46:25;;;;;;;6.65;5.80;;;20.20;99.90;;;;;;5032730;28;20452;-82
2023/09/07 06:48:52;;;;;;;6.57;5.90;;;20.20;99.90;;;;;;5074308;28;20068;-82
2023/09/07 06:51:17;;;;;;;5.90;5.40;;;20.20;99.90;;;;;;5039686;28;20073;-81
2023/09/07 06:53:43;;;;;;;6.20;5.18;;;20.30;99.90;;;;;;5040006;28;20029;-82
2023/09/07 06:56:10;;;;;;;6.22;5.38;;;20.30;99.90;;;;;;5056638;28;20021;-82
2023/09/07 06:58:35;;;;;;;7.60;4.88;;;20.30;99.90;;;;;;5064107;28;20377;-82
2023/09/07 07:01:02;;;;;;;7.28;5.63;;;20.40;99.90;;;;;;5040788;28;20029;-81
2023/09/07 07:03:29;;;;;;;6.10;5.50;;;20.40;99.90;;;;;;5056694;28;20038;-81
2023/09/07 07:05:55;;;;;;;7.63;6.05;;;20.50;99.90;;;;;;5039311;28;20021;-81
2023/09/07 07:08:21;;;;;;;7.05;5.72;;;20.50;99.90;;;;;;5037116;28;20024;-82
2023/09/07 07:10:47;;;;;;;6.07;5.47;;;20.60;99.90;;;;;;5034984;28;20021;-82
2023/09/07 07:13:13;;;;;;;8.65;5.85;;;20.60;99.90;;;;;;5020494;28;20055;-81
2023/09/07 07:15:38;;;;;;;6.07;5.43;;;20.70;99.90;;;;;;5037421;28;20123;-81
2023/09/07 07:18:08;;;;;;;5.82;4.95;;;20.70;99.90;;;;;;5033187;28;20090;-81
2023/09/07 07:20:43;;;;;;;5.20;4.70;;;20.80;99.90;;;;;;5079951;28;20076;-82
2023/09/07 07:23:09;;;;;;;7.60;5.57;;;20.80;99.90;;;;;;5064451;28;20009;-82
2023/09/07 07:25:36;;;;;;;7.93;5.70;;;20.90;99.90;;;;;;5080295;28;20028;-81
2023/09/07 07:28:05;;;;;;;6.93;5.57;;;21.00;99.90;;;;;;5079417;28;20027;-81
2023/09/07 07:30:32;;;;;;;5.78;5.10;;;21.10;99.90;;;;;;5060283;28;20025;-81
2023/09/07 07:32:58;;;;;;;6.55;5.82;;;21.10;99.90;;;;;;5066890;28;20020;-82
2023/09/07 07:35:23;;;;;;;5.95;5.15;;;21.20;99.90;;;;;;5056241;28;20353;-82
2023/09/07 07:37:52;;;;;;;8.18;4.90;;;21.20;99.90;;;;;;5052735;28;20049;-81
2023/09/07 07:40:18;;;;;;;8.85;5.53;;;21.30;99.90;;;;;;5035568;28;20029;-82
2023/09/07 07:42:48;;;;;;;7.57;5.65;;;21.40;99.90;;;;;;5052536;28;20024;-82
2023/09/07 07:45:14;;;;;;;6.65;4.85;;;21.40;99.90;;;;;;5053530;28;20028;-82
2023/09/07 07:47:42;;;;;;;5.30;4.80;;;21.50;99.90;;;;;;5053688;28;20025;-82
2023/09/07 07:50:08;;;;;;;5.57;4.95;;;21.50;99.90;;;;;;5044955;28;20017;-82
2023/09/07 07:52:34;;;;;;;6.65;4.90;;;21.50;99.90;;;;;;5016154;28;20022;-82
2023/09/07 07:55:00;;;;;;;5.65;5.00;;;21.60;99.90;;;;;;5032536;28;20014;-82
2023/09/07 07:57:26;;;;;;;12.60;5.60;;;21.70;99.90;;;;;;5032145;28;20337;-82
2023/09/07 07:59:51;;;;;;;6.15;5.55;;;21.70;99.90;;;;;;5033752;28;20525;-82
2023/09/07 08:02:17;;;;;;;6.57;5.70;;;21.80;99.90;;;;;;5016836;28;20056;-82
2023/09/07 08:04:43;;;;;;;5.95;5.20;;;21.90;99.80;;;;;;5032262;28;20127;-82
2023/09/07 08:07:08;;;;;;;5.75;5.07;;;22.00;99.70;;;;;;5015632;28;20072;-82
2023/09/07 08:09:34;;;;;;;6.07;4.93;;;22.00;99.70;;;;;;5015968;28;20543;-82
2023/09/07 08:12:03;;;;;;;6.38;4.97;;;22.00;99.70;;;;;;5033005;28;20014;-82
2023/09/07 08:14:29;;;;;;;6.22;5.40;;;22.10;99.70;;;;;;5032453;28;20108;-82
2023/09/07 08:16:56;;;;;;;5.80;5.20;;;22.20;99.60;;;;;;5015935;28;20477;-82
2023/09/07 08:19:22;;;;;;;6.03;5.43;;;22.20;99.60;;;;;;5032772;28;20096;-82
2023/09/07 08:21:47;;;;;;;6.85;5.70;;;22.30;99.60;;;;;;5032025;28;20453;-82
2023/09/07 08:24:13;;;;;;;6.15;5.55;;;22.30;99.60;;;;;;5039271;28;20032;-82
2023/09/07 08:26:39;;;;;;;7.15;5.90;;;22.40;99.40;;;;;;5039196;28;20120;-82
2023/09/07 08:29:05;;;;;;;6.85;6.20;;;22.40;99.40;;;;;;5044536;28;20025;-82
2023/09/07 08:31:35;;;;;;;6.18;5.57;;;22.50;99.30;;;;;;5004806;28;20022;-82
2023/09/07 08:34:06;;;;;;;7.15;6.07;;;22.60;99.40;;;;;;5023145;28;20025;-82
2023/09/07 08:36:35;;;;;;;;;;;22.60;99.30;;;;;;5053943;28;20005;-82
2023/09/07 08:39:12;;;;;;;8.93;4.70;;;22.70;99.20;;;;;;5058761;28;19915;-82
2023/09/07 08:41:43;;;;;;;6.07;5.35;;;22.70;99.20;;;;;;5059282;28;20121;-82
2023/09/07 08:44:16;;;;;;;6.78;6.07;;;22.80;99.20;;;;;;5059574;28;20020;-82
2023/09/07 08:46:43;;;;;;;7.47;5.68;;;22.80;99.10;;;;;;5044237;28;20453;-83
2023/09/07 08:49:11;;;;;;;6.50;5.75;;;22.90;99.00;;;;;;5065076;28;20028;-82
2023/09/07 08:51:37;;;;;;;5.50;4.95;;;23.00;99.00;;;;;;5012610;28;20031;-82
2023/09/07 08:54:07;;;;;;;5.80;5.20;;;23.10;98.90;;;;;;5064956;28;20012;-82
2023/09/07 08:56:33;;;;;;;6.57;4.72;;;23.10;98.90;;;;;;5042772;28;20021;-82
2023/09/07 08:58:59;;;;;;;6.88;5.25;;;23.20;98.90;;;;;;5058539;28;20033;-82
2023/09/07 09:01:25;;;;;;;5.80;4.80;;;23.30;98.80;;;;;;5048872;28;20388;-83
2023/09/07 09:03:51;;;;;;;4.63;4.22;;;23.40;98.70;;;;;;5038813;28;20059;-83
2023/09/07 09:06:18;;;;;;;6.50;4.97;;;23.50;98.60;;;;;;5067489;28;20038;-83
2023/09/07 09:08:54;;;;;;;6.43;4.55;;;23.60;98.40;;;;;;5077173;28;20050;-83
2023/09/07 09:11:21;;;;;;;6.97;4.80;;;23.60;98.30;;;;;;5059176;28;20013;-83
2023/09/07 09:13:48;;;;;;;5.60;4.65;;;23.70;98.20;;;;;;5076195;28;20025;-83
2023/09/07 09:16:14;;;;;;;5.10;4.63;;;23.80;98.00;;;;;;5063047;28;20024;-83
2023/09/07 09:18:53;;;;;;;5.18;4.18;;;23.80;97.90;;;;;;5077989;28;20036;-82
2023/09/07 09:21:20;;;;;;;4.95;4.47;;;23.90;97.90;;;;;;5083011;28;20008;-83
2023/09/07 09:23:49;;;;;;;4.45;3.90;;;23.90;97.80;;;;;;5066760;28;20028;-82
2023/09/07 09:26:15;;;;;;;6.63;4.57;;;24.00;97.90;;;;;;5064394;28;20092;-82
2023/09/07 09:28:43;;;;;;;5.13;3.90;;;24.10;97.80;;;;;;5079905;28;20060;-82
2023/09/07 09:31:12;;;;;;;3.88;3.45;;;24.20;97.60;;;;;;5073172;28;20017;-83
2023/09/07 09:33:42;;;;;;;5.60;3.70;;;24.30;97.40;;;;;;5073830;28;20024;-83
2023/09/07 09:36:08;;;;;;;3.28;2.97;;;24.30;97.30;;;;;;5070207;28;20009;-83
2023/09/07 09:38:35;;;;;;;3.40;2.88;;;24.40;97.20;;;;;;5054735;28;20053;-83
2023/09/07 09:41:03;;;;;;;5.85;4.07;;;24.50;97.10;;;;;;5023804;28;20112;-82
2023/09/07 09:43:28;;;;;;;6.43;3.70;;;24.50;96.80;;;;;;5018445;28;20021;-83
2023/09/07 09:45:56;;;;;;;4.55;3.40;;;24.60;96.70;;;;;;5039393;28;20092;-83
2023/09/07 09:48:22;;;;;;;4.07;3.28;;;24.70;96.70;;;;;;5054238;28;20025;-82
2023/09/07 09:50:49;;;;;;;5.07;3.65;;;24.70;96.60;;;;;;5054370;28;20021;-83
2023/09/07 09:53:20;;;;;;;6.00;3.53;;;24.80;96.60;;;;;;5041059;28;20026;-83
2023/09/07 09:55:49;;;;;;;4.95;3.63;;;24.90;96.40;;;;;;5034064;28;20485;-83
2023/09/07 09:58:16;;;;;;;6.53;3.65;;;24.90;96.00;;;;;;5034152;28;20052;-82
2023/09/07 10:00:57;;;;;;;9.27;4.30;;;24.90;95.90;;;;;;5034477;28;20025;-83
2023/09/07 10:03:32;;;;;;;5.75;3.63;;;25.00;95.70;;;;;;5047210;28;20033;-83
2023/09/07 10:06:12;;;;;;;4.20;3.22;;;25.10;95.70;;;;;;5041479;28;20020;-83
2023/09/07 10:08:37;;;;;;;4.55;3.75;;;25.10;95.60;;;;;;5053970;28;20394;-83
2023/09/07 10:11:09;;;;;;;5.70;3.10;;;25.10;95.40;;;;;;5028337;28;20034;-83
2023/09/07 10:13:35;;;;;;;4.63;3.33;;;25.20;95.50;;;;;;5034157;28;20088;-83
2023/09/07 10:16:08;;;;;;;3.95;3.22;;;25.30;95.60;;;;;;5034136;28;20022;-83
2023/09/07 10:18:38;;;;;;;6.78;3.67;;;25.40;95.70;;;;;;5048103;28;20060;-83
2023/09/07 10:21:04;;;;;;;6.13;3.25;;;25.40;95.40;;;;;;5055286;28;20025;-83
2023/09/07 10:23:36;;;;;;;7.28;3.88;;;25.50;95.50;;;;;;5053786;28;20032;-83
2023/09/07 10:26:04;;;;;;;3.85;3.25;;;25.50;95.30;;;;;;5045114;28;20036;-83
2023/09/07 10:28:30;;;;;;;6.63;2.95;;;25.60;95.30;;;;;;5039723;28;20090;-83
2023/09/07 10:31:07;;;;;;;6.38;3.88;;;25.70;95.30;;;;;;5051155;28;20452;-82
2023/09/07 10:33:34;;;;;;;5.30;3.60;;;25.70;94.80;;;;;;5036666;28;20100;-83
2023/09/07 10:36:01;;;;;;;3.97;3.30;;;25.80;94.60;;;;;;5017497;28;20064;-83
2023/09/07 10:38:27;;;;;;;3.88;3.20;;;25.80;94.50;;;;;;5056539;28;20464;-83
2023/09/07 10:41:12;;;;;;;7.05;3.72;;;25.80;94.40;;;;;;5024312;28;20025;-83
2023/09/07 10:43:51;;;;;;;5.70;3.25;;;25.90;94.30;;;;;;5039975;28;20021;-83
2023/09/07 10:46:21;;;;;;;4.00;3.35;;;26.00;94.10;;;;;;5040032;28;20013;-83
2023/09/07 10:48:52;;;;;;;3.95;3.08;;;26.00;94.00;;;;;;5036701;28;20372;-83
2023/09/07 10:51:23;;;;;;;4.35;2.97;;;26.10;93.90;;;;;;5036544;28;20020;-84
2023/09/07 10:53:49;;;;;;;4.43;2.97;;;26.10;93.70;;;;;;5039134;28;20025;-83
2023/09/07 10:56:15;;;;;;;4.13;2.72;;;26.20;93.50;;;;;;5004040;28;20094;-83
2023/09/07 10:58:42;;;;;;;4.18;3.08;;;26.20;93.50;;;;;;5071433;28;20046;-83
2023/09/07 11:01:11;;;;;;;5.00;2.92;;;26.30;93.50;;;;;;5057091;28;20027;-83
2023/09/07 11:03:37;;;;;;;3.20;2.60;;;26.30;93.30;;;;;;5056490;28;20113;-83
2023/09/07 11:06:19;;;;;;;3.28;2.97;;;26.30;93.50;;;;;;5045891;28;20056;-83
2023/09/07 11:08:46;;;;;;;4.43;3.13;;;26.40;93.50;;;;;;5036419;28;20028;-83
2023/09/07 11:11:13;;;;;;;3.13;2.85;;;26.40;92.90;;;;;;5031845;28;20017;-83
2023/09/07 11:13:38;;;;;;;3.90;2.78;;;26.50;93.10;;;;;;5020026;28;20075;-83
2023/09/07 11:16:08;;;;;;;3.53;3.15;;;26.50;93.30;;;;;;5036806;28;20419;-83
2023/09/07 11:18:37;;;;;;;3.75;2.95;;;26.50;93.30;;;;;;5053745;28;20025;-83
2023/09/07 11:21:03;;;;;;;3.40;2.80;;;26.60;93.20;;;;;;5036795;28;20029;-83
2023/09/07 11:23:37;;;;;;;5.35;2.97;;;26.60;93.30;;;;;;5039224;28;20021;-83
2023/09/07 11:26:08;;;;;;;5.10;3.10;;;26.70;93.30;;;;;;5067753;28;20099;-82
2023/09/07 11:28:34;;;;;;;3.13;2.88;;;26.80;93.40;;;;;;5081031;28;20025;-83
2023/09/07 11:31:00;;;;;;;3.17;2.80;;;26.80;93.20;;;;;;5064021;28;20021;-83
2023/09/07 11:33:31;;;;;;;3.97;3.15;;;26.80;93.00;;;;;;5080266;28;20066;-83
2023/09/07 11:35:56;;;;;;;3.22;2.70;;;26.90;92.40;;;;;;5097759;28;20017;-80
2023/09/07 11:38:22;;;;;;;2.88;2.40;;;27.00;92.10;;;;;;5081616;28;20538;-83
2023/09/07 11:40:48;;;;;;;3.63;2.80;;;27.10;92.00;;;;;;5074198;28;20035;-83
2023/09/07 11:43:23;;;;;;;4.03;2.97;;;27.10;91.60;;;;;;5055960;28;20032;-83
2023/09/07 11:45:50;;;;;;;3.75;2.80;;;27.10;91.70;;;;;;5041962;28;20017;-83
2023/09/07 11:48:15;;;;;;;4.45;2.75;;;27.20;91.80;;;;;;5049786;28;20032;-83
2023/09/07 11:50:41;;;;;;;2.95;2.65;;;27.20;91.70;;;;;;5016700;28;20457;-83
2023/09/07 11:53:07;;;;;;;3.63;2.63;;;27.30;91.90;;;;;;5055662;28;20101;-83
2023/09/07 11:55:34;;;;;;;3.28;2.70;;;27.30;91.70;;;;;;5012873;28;20029;-83
2023/09/07 11:58:01;;;;;;;4.15;2.70;;;27.40;91.80;;;;;;5035808;28;20057;-83
2023/09/07 12:00:26;;;;;;;4.13;2.65;;;27.40;91.90;;;;;;5053211;28;20452;-83
2023/09/07 12:02:52;;;;;;;4.47;3.00;;;27.40;91.80;;;;;;5029338;28;20083;-83
2023/09/07 12:05:19;;;;;;;3.30;2.60;;;27.50;91.70;;;;;;5055784;28;20449;-83
2023/09/07 12:07:45;;;;;;;3.50;3.20;;;27.50;91.60;;;;;;5055332;28;20031;-83
2023/09/07 12:10:11;;;;;;;4.68;2.85;;;27.60;91.30;;;;;;5055486;28;20103;-83
2023/09/07 12:12:38;;;;;;;5.25;2.88;;;27.60;91.50;;;;;;5049213;28;20013;-82
2023/09/07 12:15:04;;;;;;;2.92;2.63;;;27.60;91.70;;;;;;5037457;28;20089;-83
2023/09/07 12:17:34;;;;;;;2.60;2.40;;;27.70;91.80;;;;;;5040494;28;20027;-83
2023/09/07 12:20:00;;;;;;;4.10;3.08;;;27.70;91.60;;;;;;5055390;28;20075;-83
2023/09/07 12:22:26;;;;;;;3.10;2.80;;;27.70;91.50;;;;;;5038517;28;20060;-83
2023/09/07 12:24:52;;;;;;;2.90;2.55;;;27.80;91.70;;;;;;5038407;28;20025;-83
2023/09/07 12:27:18;;;;;;;3.22;2.92;;;27.80;91.80;;;;;;5045458;28;20437;-84
2023/09/07 12:29:45;;;;;;;4.07;3.00;;;27.80;91.90;;;;;;5050620;28;20050;-83
2023/09/07 12:32:11;;;;;;;3.10;2.78;;;27.90;92.00;;;;;;5055269;28;20016;-83
2023/09/07 12:34:37;;;;;;;7.40;2.70;;;27.90;91.60;;;;;;5055026;28;20024;-83
2023/09/07 12:37:05;;;;;;;3.40;2.70;;;27.90;91.50;;;;;;5054543;28;20045;-83
2023/09/07 12:39:34;;;;;;;3.08;2.65;;;27.90;91.40;;;;;;5035835;28;20469;-83
2023/09/07 12:42:01;;;;;;;4.82;2.88;;;28.00;91.40;;;;;;5019328;28;20360;-83
2023/09/07 12:44:26;;;;;;;4.18;3.22;;;28.00;90.90;;;;;;5037870;28;20115;-83
2023/09/07 12:46:52;;;;;;;3.90;2.78;;;28.00;90.60;;;;;;5024245;28;20103;-83